Annada, Missouri
Current Conditions -  °F | °C
As of 2:15 PM on Thursday 29 Jan 2015 (Local Time) from KPPQ Reporting Station
Overcast Overcast  
Wind Chill: 31°   Ceiling: 2200
Heat Index: 39°   Visibility: 10mi
Dew Point: 32°   Wind: 14mph
Humidity: 74%   Direction: 300°WNW
Pressure: 30.19"   Gusts: 21mph
Location:  39.26°N, 90.83°W
Report Text: KPPQ 292015Z AUTO 30012G18KT 10SM OVC022 04/00 A3019 RMK AO2 T00411001
Loading
Personal Weather Stations






























Interactive Weather Map New forecast layout! Learn more

10-Day Weather Forecast

Advertisements
Track Severe Weather on mobile